METAR Data
IDs: Format: Raw Decoded Include TAF

Data at: 1120 UTC 18 Jan 2022

LYBE 181100Z 31016KT 9999 BKN030 03/M03 Q1032 NOSIG